Time;durP1;ratioP1;P1;durP2;ratioP2;P2;SDS_P1;SDS_P2;PMS_P1;PMS_P2;Temp;Humidity;BMP_temperature;BMP_pressure;BME280_temperature;BME280_humidity;BME280_pressure;Samples;Min_cycle;Max_cycle;Signal;HPM_P1;HPM_P2
2021/09/07 00:01:41;;;;;;;;;;;12.80;99.90;;;;;;4992610;28;20473;-73
2021/09/07 00:04:13;;;;;;;;;;;12.80;99.90;;;;;;4975839;28;20027;-73
2021/09/07 00:06:39;;;;;;;;;;;12.80;99.90;;;;;;4992650;28;19960;-73
2021/09/07 00:09:11;;;;;;;;;;;12.70;99.90;;;;;;4991297;28;19968;-74
2021/09/07 00:11:38;;;;;;;;;;;12.70;99.90;;;;;;4975095;28;19926;-73
2021/09/07 00:14:05;;;;;;;;;;;12.70;99.90;;;;;;4958691;28;19926;-73
2021/09/07 00:16:36;;;;;;;;;;;12.70;99.90;;;;;;4975055;28;19926;-73
2021/09/07 00:19:08;;;;;;;;;;;12.60;99.90;;;;;;4959801;28;19965;-74
2021/09/07 00:21:35;;;;;;;;;;;12.60;99.90;;;;;;4975156;28;20028;-73
2021/09/07 00:24:02;;;;;;;;;;;12.60;99.90;;;;;;4975066;28;20012;-73
2021/09/07 00:26:34;;;;;;;;;;;12.60;99.90;;;;;;4991177;28;19926;-75
2021/09/07 00:29:00;;;;;;;;;;;12.60;99.90;;;;;;4990914;28;19976;-74
2021/09/07 00:31:32;;;;;;;;;;;12.60;99.90;;;;;;4975059;28;19926;-74
2021/09/07 00:34:03;;;;;;;;;;;12.60;99.90;;;;;;4974787;28;20017;-73
2021/09/07 00:36:30;;;;;;;;;;;12.60;99.90;;;;;;4991344;28;19965;-73
2021/09/07 00:39:02;;;;;;;;;;;12.60;99.90;;;;;;4992199;28;20451;-73
2021/09/07 00:41:28;;;;;;;;;;;12.60;99.90;;;;;;4979023;28;20345;-76
2021/09/07 00:43:55;;;;;;;;;;;12.50;99.90;;;;;;4996110;28;19926;-74
2021/09/07 00:46:22;;;;;;;;;;;12.40;99.90;;;;;;4978587;28;20374;-73
2021/09/07 00:48:53;;;;;;;;;;;12.40;99.90;;;;;;4995895;28;19926;-74
2021/09/07 00:51:21;;;;;;;;;;;12.40;99.90;;;;;;4978560;28;19926;-73
2021/09/07 00:53:48;;;;;;;;;;;12.30;99.90;;;;;;4978548;28;20012;-74
2021/09/07 00:56:21;;;;;;;;;;;12.30;99.90;;;;;;4995702;28;19988;-74
2021/09/07 00:58:53;;;;;;;;;;;12.20;99.90;;;;;;4994656;28;19933;-74
2021/09/07 01:01:25;;;;;;;;;;;12.20;99.90;;;;;;4994320;28;19932;-74
2021/09/07 01:03:57;;;;;;;;;;;12.20;99.90;;;;;;4995534;28;20012;-74
2021/09/07 01:06:23;;;;;;;;;;;12.20;99.90;;;;;;4993720;28;20016;-73
2021/09/07 01:08:56;;;;;;;;;;;12.20;99.90;;;;;;4994404;28;19925;-74
2021/09/07 01:11:24;;;;;;;;;;;12.30;99.90;;;;;;4977901;28;19933;-73
2021/09/07 01:13:57;;;;;;;;;;;12.30;99.90;;;;;;4979132;28;19945;-73
2021/09/07 01:16:25;;;;;;;;;;;12.30;99.90;;;;;;4994918;28;20281;-76
2021/09/07 01:18:59;;;;;;;;;;;12.30;99.90;;;;;;4993470;28;20450;-74
2021/09/07 01:21:31;;;;;;;;;;;12.30;99.90;;;;;;4978417;28;20032;-74
2021/09/07 01:23:58;;;;;;;;;;;12.30;99.90;;;;;;4977407;28;20053;-74
2021/09/07 01:26:24;;;;;;;;;;;12.30;99.90;;;;;;4977191;28;19975;-73
2021/09/07 01:28:51;;;;;;;;;;;12.30;99.90;;;;;;4994546;28;20385;-74
2021/09/07 01:31:23;;;;;;;;;;;12.30;99.90;;;;;;4978858;28;19925;-73
2021/09/07 01:33:51;;;;;;;;;;;12.30;99.90;;;;;;4977841;28;19926;-74
2021/09/07 01:36:22;;;;;;;;;;;12.30;99.90;;;;;;4978608;28;20005;-74
2021/09/07 01:38:54;;;;;;;;;;;12.30;99.90;;;;;;4977467;28;19937;-73
2021/09/07 01:41:26;;;;;;;;;;;12.30;99.90;;;;;;4978505;28;20032;-73
2021/09/07 01:43:52;;;;;;;;;;;12.20;99.90;;;;;;4977404;28;20021;-73
2021/09/07 01:46:19;;;;;;;;;;;12.20;99.90;;;;;;4977372;28;20026;-73
2021/09/07 01:48:51;;;;;;;;;;;12.20;99.90;;;;;;4977414;28;19926;-73
2021/09/07 01:51:22;;;;;;;;;;;12.20;99.90;;;;;;4960835;28;20020;-73
2021/09/07 01:53:49;;;;;;;;;;;12.20;99.90;;;;;;4994696;28;20029;-74
2021/09/07 01:56:21;;;;;;;;;;;12.20;99.90;;;;;;4978080;28;19977;-73
2021/09/07 01:58:53;;;;;;;;;;;12.20;99.90;;;;;;4977185;28;20044;-73
2021/09/07 02:01:24;;;;;;;;;;;12.20;99.90;;;;;;4977233;28;20017;-74
2021/09/07 02:03:56;;;;;;;;;;;12.10;99.90;;;;;;4993341;28;19925;-74
2021/09/07 02:06:32;;;;;;;;;;;12.10;99.90;;;;;;4977177;28;20424;-74
2021/09/07 02:09:04;;;;;;;;;;;12.10;99.90;;;;;;4993463;28;19965;-74
2021/09/07 02:11:33;;;;;;;;;;;12.10;99.90;;;;;;4977319;28;19926;-75
2021/09/07 02:14:05;;;;;;;;;;;12.00;99.90;;;;;;4993055;28;19933;-73
2021/09/07 02:16:38;;;;;;;;;;;12.00;99.90;;;;;;4978094;28;19937;-74
2021/09/07 02:19:10;;;;;;;;;;;12.00;99.90;;;;;;4994249;28;19925;-73
2021/09/07 02:21:42;;;;;;;;;;;11.90;99.90;;;;;;4994254;28;19930;-74
2021/09/07 02:24:15;;;;;;;;;;;11.90;99.90;;;;;;4976589;28;19932;-74
2021/09/07 02:26:42;;;;;;;;;;;11.80;99.90;;;;;;4994074;28;20044;-75
2021/09/07 02:29:13;;;;;;;;;;;11.80;99.90;;;;;;4977639;28;19926;-74
2021/09/07 02:31:41;;;;;;;;;;;11.80;99.90;;;;;;4992737;28;19933;-73
2021/09/07 02:34:13;;;;;;;;;;;11.80;99.90;;;;;;4992576;28;19976;-74
2021/09/07 02:36:45;;;;;;;;;;;11.80;99.90;;;;;;4977531;28;19940;-73
2021/09/07 02:39:17;;;;;;;;;;;11.70;99.90;;;;;;4993932;28;19926;-73
2021/09/07 02:41:49;;;;;;;;;;;11.60;99.90;;;;;;4977497;28;20372;-74
2021/09/07 02:44:17;;;;;;;;;;;11.60;99.90;;;;;;4976095;28;19926;-73
2021/09/07 02:46:45;;;;;;;;;;;11.60;99.90;;;;;;4992564;28;19926;-73
2021/09/07 02:49:17;;;;;;;;;;;11.60;99.90;;;;;;4976361;28;20359;-74
2021/09/07 02:51:43;;;;;;;;;;;11.60;99.90;;;;;;4992519;28;20045;-74
2021/09/07 02:54:16;;;;;;;;;;;11.60;99.90;;;;;;4975884;28;19925;-74
2021/09/07 02:56:48;;;;;;;;;;;11.60;99.90;;;;;;4976265;28;19925;-74
2021/09/07 02:59:15;;;;;;;;;;;11.60;99.90;;;;;;4976247;28;20008;-73
2021/09/07 03:01:41;;;;;;;;;;;11.60;99.90;;;;;;4975740;28;20319;-73
2021/09/07 03:04:14;;;;;;;;;;;11.60;99.90;;;;;;4960542;28;19926;-75
2021/09/07 03:06:41;;;;;;;;;;;11.50;99.90;;;;;;4976213;28;19930;-74
2021/09/07 03:09:14;;;;;;;;;;;11.50;99.90;;;;;;4976045;28;19925;-74
2021/09/07 03:11:46;;;;;;;;;;;11.50;99.90;;;;;;4976573;28;19932;-73
2021/09/07 03:14:18;;;;;;;;;;;11.40;99.90;;;;;;4975635;28;20031;-75
2021/09/07 03:16:46;;;;;;;;;;;11.20;99.90;;;;;;4975948;28;19926;-74
2021/09/07 03:19:15;;;;;;;;;;;11.20;99.90;;;;;;4975801;28;19926;-74
2021/09/07 03:21:48;;;;;;;;;;;11.10;99.90;;;;;;4993621;28;19932;-74
2021/09/07 03:24:20;;;;;;;;;;;11.10;99.90;;;;;;4991729;28;19926;-73
2021/09/07 03:26:52;;;;;;;;;;;11.00;99.90;;;;;;4976369;28;19933;-73
2021/09/07 03:29:23;;;;;;;;;;;11.00;99.90;;;;;;4993091;28;19925;-74
2021/09/07 03:31:55;;;;;;;;;;;11.00;99.90;;;;;;4960150;28;20317;-74
2021/09/07 03:34:27;;;;;;;;;;;11.00;99.90;;;;;;4975233;28;19926;-73
2021/09/07 03:36:54;;;;;;;;;;;11.00;99.90;;;;;;4993009;28;20356;-74
2021/09/07 03:39:26;;;;;;;;;;;11.00;99.90;;;;;;4991821;28;20025;-74
2021/09/07 03:41:53;;;;;;;;;;;10.90;99.90;;;;;;4975604;28;19948;-73
2021/09/07 03:44:25;;;;;;;;;;;10.90;99.90;;;;;;4991441;28;19926;-73
2021/09/07 03:46:55;;;;;;;;;;;10.90;99.90;;;;;;4991466;28;19948;-74
2021/09/07 03:49:26;;;;;;;;;;;10.90;99.90;;;;;;4991769;28;20024;-73
2021/09/07 03:51:59;;;;;;;;;;;10.90;99.90;;;;;;4975954;28;20442;-74
2021/09/07 03:54:27;;;;;;;;;;;10.90;99.90;;;;;;4974346;28;19968;-73
2021/09/07 03:56:55;;;;;;;;;;;10.90;99.90;;;;;;4974904;28;19932;-74
2021/09/07 03:59:22;;;;;;;;;;;10.90;99.90;;;;;;4974583;28;19980;-73
2021/09/07 04:01:49;;;;;;;;;;;10.90;99.90;;;;;;4992246;28;19929;-74
2021/09/07 04:04:17;;;;;;;;;;;10.80;99.90;;;;;;4990681;28;20419;-74
2021/09/07 04:06:49;;;;;;;;;;;10.80;99.90;;;;;;4959506;28;19926;-74
2021/09/07 04:09:22;;;;;;;;;;;10.90;99.90;;;;;;4991849;28;19926;-74
2021/09/07 04:11:49;;;;;;;;;;;10.80;99.90;;;;;;4974509;28;20032;-74
2021/09/07 04:14:17;;;;;;;;;;;10.90;99.90;;;;;;4992181;28;19972;-74
2021/09/07 04:16:49;;;;;;;;;;;10.90;99.90;;;;;;4979218;28;20048;-73
2021/09/07 04:19:21;;;;;;;;;;;10.80;99.90;;;;;;4995001;28;19932;-74
2021/09/07 04:21:48;;;;;;;;;;;10.80;99.90;;;;;;4978522;28;20435;-74
2021/09/07 04:24:19;;;;;;;;;;;10.80;99.90;;;;;;4994359;28;19953;-74
2021/09/07 04:26:46;;;;;;;;;;;10.80;99.90;;;;;;4996088;28;20021;-73
2021/09/07 04:29:13;;;;;;;;;;;10.70;99.90;;;;;;4978315;28;20308;-74
2021/09/07 04:31:44;;;;;;;;;;;10.70;99.90;;;;;;4963051;28;20360;-73
2021/09/07 04:34:11;;;;;;;;;;;10.60;99.90;;;;;;4978610;28;20016;-73
2021/09/07 04:36:43;;;;;;;;;;;10.60;99.90;;;;;;4996489;28;19926;-74
2021/09/07 04:39:09;;;;;;;;;;;10.60;99.90;;;;;;4978165;28;20038;-73
2021/09/07 04:41:36;;;;;;;;;;;10.60;99.90;;;;;;4978777;28;20368;-73
2021/09/07 04:44:04;;;;;;;;;;;10.60;99.90;;;;;;4986379;28;20528;-73
2021/09/07 04:46:36;;;;;;;;;;;10.60;99.90;;;;;;5007246;28;19926;-74
2021/09/07 04:49:03;;;;;;;;;;;10.60;99.90;;;;;;5005824;28;19969;-74
2021/09/07 04:51:35;;;;;;;;;;;10.60;99.90;;;;;;5005590;28;19960;-74
2021/09/07 04:54:01;;;;;;;;;;;10.60;99.90;;;;;;5019944;28;20043;-74
2021/09/07 04:56:28;;;;;;;;;;;10.60;99.90;;;;;;5017364;28;19956;-73
2021/09/07 04:58:55;;;;;;;;;;;10.60;99.90;;;;;;5024401;28;20020;-73
2021/09/07 05:01:26;;;;;;;;;;;10.50;99.90;;;;;;4994380;28;20024;-74
2021/09/07 05:03:53;;;;;;;;;;;10.50;99.90;;;;;;5000065;28;20449;-73
2021/09/07 05:06:20;;;;;;;;;;;10.50;99.90;;;;;;5022496;28;20039;-75
2021/09/07 05:08:47;;;;;;;;;;;10.60;99.90;;;;;;5003502;28;19968;-73
2021/09/07 05:11:19;;;;;;;;;;;10.60;99.90;;;;;;4997803;28;19932;-74
2021/09/07 05:13:45;;;;;;;;;;;10.60;99.90;;;;;;5012392;28;19927;-73
2021/09/07 05:16:12;;;;;;;;;;;10.60;99.90;;;;;;5012031;28;20028;-73
2021/09/07 05:18:39;;;;;;;;;;;10.70;99.90;;;;;;5011684;28;20020;-74
2021/09/07 05:21:06;;;;;;;;;;;10.70;99.90;;;;;;5014206;28;20540;-74
2021/09/07 05:23:32;;;;;;;;;;;10.70;99.90;;;;;;5015382;28;20474;-73
2021/09/07 05:26:04;;;;;;;;;;;10.70;99.90;;;;;;5012015;28;20020;-74
2021/09/07 05:28:36;;;;;;;;;;;10.70;99.90;;;;;;5014001;28;19929;-74
2021/09/07 05:31:08;;;;;;;;;;;10.80;99.90;;;;;;5034023;28;20023;-73
2021/09/07 05:33:34;;;;;;;;;;;10.80;99.90;;;;;;5032940;28;20333;-74
2021/09/07 05:36:06;;;;;;;;;;;10.80;99.90;;;;;;5016683;28;20024;-74
2021/09/07 05:38:33;;;;;;;;;;;10.90;99.90;;;;;;5032645;28;19967;-74
2021/09/07 05:40:59;;;;;;;;;;;10.90;99.90;;;;;;5005795;28;20402;-73
2021/09/07 05:43:26;;;;;;;;;;;10.90;99.90;;;;;;5016255;28;19925;-76
2021/09/07 05:45:58;;;;;;;;;;;11.20;99.90;;;;;;5014326;28;20015;-74
2021/09/07 05:48:24;;;;;;;;;;;11.70;99.90;;;;;;5032622;28;19925;-74
2021/09/07 05:50:56;;;;;;;;;;;11.80;99.90;;;;;;5016180;28;20298;-74
2021/09/07 05:53:28;;;;;;;;;;;11.80;99.90;;;;;;5016171;28;20372;-74
2021/09/07 05:56:00;;;;;;;;;;;11.70;99.90;;;;;;5016548;28;20379;-73
2021/09/07 05:58:27;;;;;;;;;;;11.60;99.90;;;;;;5011777;28;20011;-74
2021/09/07 06:00:53;;;;;;;;;;;11.50;99.90;;;;;;5001913;28;20024;-74
2021/09/07 06:03:25;;;;;;;;;;;11.40;99.90;;;;;;4994460;28;20304;-73
2021/09/07 06:05:54;;;;;;;;;;;11.30;99.90;;;;;;4995337;28;20380;-73
2021/09/07 06:08:29;;;;;;;;;;;11.20;99.90;;;;;;5013477;28;20340;-74
2021/09/07 06:11:01;;;;;;;;;;;11.20;99.90;;;;;;5001313;28;19965;-74
2021/09/07 06:13:27;;;;;;;;;;;11.20;99.90;;;;;;5001840;28;20296;-74
2021/09/07 06:15:54;;;;;;;;;;;11.20;99.90;;;;;;4993548;28;20029;-74
2021/09/07 06:18:21;;;;;;;;;;;11.20;99.90;;;;;;4991239;28;20012;-74
2021/09/07 06:20:47;;;;;;;;;;;11.20;99.90;;;;;;4995882;28;20013;-74
2021/09/07 06:23:14;;;;;;;;;;;11.30;99.90;;;;;;4995897;28;20414;-74
2021/09/07 06:25:42;;;;;;;;;;;11.30;99.90;;;;;;4990303;28;19964;-75
2021/09/07 06:28:13;;;;;;;;;;;11.40;99.90;;;;;;4995679;28;19930;-74
2021/09/07 06:30:45;;;;;;;;;;;11.40;99.90;;;;;;5012255;28;19925;-74
2021/09/07 06:33:12;;;;;;;;;;;11.50;99.90;;;;;;5031600;28;19972;-74
2021/09/07 06:35:43;;;;;;;;;;;11.60;99.90;;;;;;5014789;28;19932;-74
2021/09/07 06:38:15;;;;;;;;;;;11.70;99.90;;;;;;5015618;28;19925;-73
2021/09/07 06:40:42;;;;;;;;;;;11.80;99.90;;;;;;5031518;28;19964;-74
2021/09/07 06:43:13;;;;;;;;;;;11.90;99.90;;;;;;5015204;28;20016;-74
2021/09/07 06:45:45;;;;;;;;;;;12.00;99.90;;;;;;5032599;28;19925;-73
2021/09/07 06:48:17;;;;;;;;;;;12.10;99.90;;;;;;5032843;28;20024;-74
2021/09/07 06:50:48;;;;;;;;;;;12.20;99.90;;;;;;5031224;28;19929;-74
2021/09/07 06:53:20;;;;;;;;;;;12.20;99.90;;;;;;5027232;28;19932;-75
2021/09/07 06:55:52;;;;;;;;;;;12.20;99.90;;;;;;5002883;28;20480;-74
2021/09/07 06:58:19;;;;;;;;;;;12.20;99.90;;;;;;4994880;28;19925;-74
2021/09/07 07:00:45;;;;;;;;;;;12.30;99.90;;;;;;5011287;28;19972;-74
2021/09/07 07:03:18;;;;;;;;;;;12.40;99.90;;;;;;5006698;28;20396;-73
2021/09/07 07:05:44;;;;;;;;;;;12.40;99.90;;;;;;5012099;28;19929;-73
2021/09/07 07:08:16;;;;;;;;;;;12.50;99.90;;;;;;4994640;28;20439;-74
2021/09/07 07:10:48;;;;;;;;;;;12.60;99.90;;;;;;4997944;28;20331;-73
2021/09/07 07:13:14;;;;;;;;;;;12.70;99.90;;;;;;5012533;28;20020;-74
2021/09/07 07:15:41;;;;;;;;;;;12.70;99.90;;;;;;5010764;28;19929;-74
2021/09/07 07:18:13;;;;;;;;;;;12.80;99.90;;;;;;4995567;28;19932;-74
2021/09/07 07:20:39;;;;;;;;;;;12.90;99.90;;;;;;4992238;28;20018;-74
2021/09/07 07:23:11;;;;;;;;;;;13.00;99.90;;;;;;4994105;28;19931;-74
2021/09/07 07:25:38;;;;;;;;;;;13.00;99.90;;;;;;5020016;28;20028;-74
2021/09/07 07:28:04;;;;;;;;;;;12.90;99.90;;;;;;5018372;28;21554;-74
2021/09/07 07:30:32;;;;;;;;;;;13.00;99.90;;;;;;4998480;28;19953;-74
2021/09/07 07:33:03;;;;;;;;;;;13.10;99.90;;;;;;4974440;28;20028;-74
2021/09/07 07:35:30;;;;;;;;;;;13.20;99.90;;;;;;4974929;28;20020;-74
2021/09/07 07:37:57;;;;;;;;;;;13.20;99.90;;;;;;4972553;28;19973;-74
2021/09/07 07:40:29;;;;;;;;;;;13.30;99.90;;;;;;4993067;28;20008;-74
2021/09/07 07:42:55;;;;;;;;;;;13.40;99.90;;;;;;5000702;28;19937;-75
2021/09/07 07:45:27;;;;;;;;;;;13.50;99.90;;;;;;5010549;28;19984;-75
2021/09/07 07:47:54;;;;;;;;;;;13.60;99.90;;;;;;4991310;28;19976;-74
2021/09/07 07:50:25;;;;;;;;;;;13.70;99.90;;;;;;4974165;28;19926;-73
2021/09/07 07:52:52;;;;;;;;;;;13.80;99.90;;;;;;4993679;28;19933;-73
2021/09/07 07:55:19;;;;;;;;;;;13.90;99.90;;;;;;4993055;28;20016;-73
2021/09/07 07:57:50;;;;;;;;;;;14.00;99.90;;;;;;5008191;28;19936;-73
2021/09/07 08:00:17;;;;;;;;;;;14.10;99.90;;;;;;4995479;28;20017;-73
2021/09/07 08:02:44;;;;;;;;;;;14.30;99.90;;;;;;4970599;28;19926;-73
2021/09/07 08:05:16;;;;;;;;;;;14.40;99.90;;;;;;4970847;28;20013;-73
2021/09/07 08:07:47;;;;;;;;;;;14.50;99.90;;;;;;4971781;28;19926;-73
2021/09/07 08:10:19;;;;;;;;;;;14.70;99.90;;;;;;4988279;28;19925;-73
2021/09/07 08:12:46;;;;;;;;;;;14.80;99.90;;;;;;4971256;28;20537;-73
2021/09/07 08:15:12;;;;;;;;;;;14.90;99.90;;;;;;4971118;28;20028;-73
2021/09/07 08:17:39;;;;;;;;;;;15.00;99.90;;;;;;4972268;28;20024;-73
2021/09/07 08:20:11;;;;;;;;;;;15.10;99.90;;;;;;4911347;28;1808285;-73
2021/09/07 08:22:43;;;;;;;;;;;15.20;99.90;;;;;;4959319;28;19926;-73
2021/09/07 08:25:10;;;;;;;;;;;15.30;99.90;;;;;;4974127;28;19925;-73
2021/09/07 08:27:42;;;;;;;;;;;15.40;99.90;;;;;;4974627;28;20028;-73
2021/09/07 08:30:15;;;;;;;;;;;15.60;99.90;;;;;;4974820;28;20315;-73
2021/09/07 08:32:46;;;;;;;;;;;15.70;99.90;;;;;;4974352;28;19933;-73
2021/09/07 08:35:18;;;;;;;;;;;15.80;99.90;;;;;;4974382;28;20020;-74
2021/09/07 08:37:45;;;;;;;;;;;16.00;99.90;;;;;;4974543;28;20273;-73
2021/09/07 08:40:12;;;;;;;;;;;16.10;99.90;;;;;;4958381;28;20013;-73
2021/09/07 08:42:39;;;;;;;;;;;16.30;99.90;;;;;;4974009;28;19933;-73
2021/09/07 08:45:07;;;;;;;;;;;16.40;99.90;;;;;;4974333;28;19987;-73
2021/09/07 08:47:38;;;;;;;;;;;16.50;99.90;;;;;;4974569;28;20032;-74
2021/09/07 08:50:11;;;;;;;;;;;16.60;99.90;;;;;;4992474;28;19925;-73
2021/09/07 08:52:38;;;;;;;;;;;16.80;99.90;;;;;;4991859;28;19926;-73
2021/09/07 08:55:10;;;;;;;;;;;16.80;99.90;;;;;;4974538;28;19976;-74
2021/09/07 08:57:36;;;;;;;;;;;16.90;99.90;;;;;;4974616;28;19976;-73
2021/09/07 09:00:04;;;;;;;;;;;16.90;99.90;;;;;;4975591;28;19992;-73
2021/09/07 09:02:37;;;;;;;;;;;17.00;99.90;;;;;;4978350;28;19926;-73
2021/09/07 09:05:09;;;;;;;;;;;17.10;99.90;;;;;;4962912;28;19925;-74
2021/09/07 09:07:37;;;;;;;;;;;17.30;99.90;;;;;;4978213;28;20310;-74
2021/09/07 09:10:17;;;;;;;;;;;17.40;99.90;;;;;;4995542;28;20308;-73
2021/09/07 09:12:49;;;;;;;;;;;17.50;99.90;;;;;;4962778;28;20339;-73
2021/09/07 09:15:17;;;;;;;;;;;17.70;99.90;;;;;;4979073;28;19981;-73
2021/09/07 09:17:43;;;;;;;;;;;17.80;99.90;;;;;;4978090;28;19928;-73
2021/09/07 09:20:16;;;;;;;;;;;17.90;99.90;;;;;;4977967;28;19925;-74
2021/09/07 09:22:55;;;;;;;;;;;18.10;99.90;;;;;;4977849;28;20377;-73
2021/09/07 09:25:26;;;;;;;;;;;18.20;99.90;;;;;;4962333;28;19925;-73
2021/09/07 09:27:56;;;;;;;;;;;18.40;99.90;;;;;;4978092;28;19926;-73
2021/09/07 09:30:28;;;;;;;;;;;18.50;99.90;;;;;;4995331;28;19980;-73
2021/09/07 09:33:00;;;;;;;;;;;18.70;99.90;;;;;;4978608;28;20036;-73
2021/09/07 09:35:42;;;;;;;;;;;18.80;99.90;;;;;;4978356;28;20008;-73
2021/09/07 09:38:14;;;;;;;;;;;18.90;99.90;;;;;;4977684;28;19961;-73
2021/09/07 09:40:52;;;;;;;;;;;19.10;99.90;;;;;;4978644;28;20403;-73
2021/09/07 09:43:24;;;;;;;;;;;19.30;99.90;;;;;;4977630;28;19929;-72
2021/09/07 09:45:51;;;;;;;;;;;19.40;99.90;;;;;;4978201;28;19934;-73
2021/09/07 09:48:25;;;;;;;;;;;19.60;99.90;;;;;;4993114;28;20303;-72
2021/09/07 09:50:59;;;;;;;;;;;19.80;99.90;;;;;;4990418;28;20349;-72
2021/09/07 09:53:31;;;;;;;;;;;20.00;99.90;;;;;;5011416;28;20368;-72
2021/09/07 09:56:03;;;;;;;;;;;20.10;99.90;;;;;;4996091;28;20032;-72
2021/09/07 09:58:35;;;;;;;;;;;20.30;99.90;;;;;;5010161;28;19926;-72
2021/09/07 10:01:08;;;;;;;;;;;20.40;99.90;;;;;;5004589;28;20004;-71
2021/09/07 10:03:40;;;;;;;;;;;20.50;99.90;;;;;;5005852;28;20024;-72
2021/09/07 10:06:07;;;;;;;;;;;20.70;99.90;;;;;;4993148;28;20367;-72
2021/09/07 10:08:39;;;;;;;;;;;20.80;99.90;;;;;;4994739;28;20029;-72
2021/09/07 10:11:14;;;;;;;;;;;21.00;99.90;;;;;;4976883;28;19930;-72
2021/09/07 10:13:47;;;;;;;;;;;21.10;99.90;;;;;;4968510;28;20024;-72
2021/09/07 10:16:39;;;;;;;;;;;21.20;99.90;;;;;;4996277;28;19933;-72
2021/09/07 10:19:25;;;;;;;;;;;21.40;99.90;;;;;;4995931;28;20045;-72
2021/09/07 10:24:48;;;;;;;;;;;21.70;99.90;;;;;;5013536;28;20033;-72
2021/09/07 10:27:20;;;;;;;;;;;21.80;99.90;;;;;;4997332;28;19926;-72
2021/09/07 10:29:53;;;;;;;;;;;22.00;99.90;;;;;;4993719;28;19961;-71
2021/09/07 10:32:34;;;;;;;;;;;22.00;99.90;;;;;;5010323;28;20015;-72
2021/09/07 10:35:08;;;;;;;;;;;22.20;99.90;;;;;;5009394;28;19926;-72
2021/09/07 10:38:18;;;;;;;;;;;22.30;99.90;;;;;;5010535;28;20040;-72
2021/09/07 10:40:49;;;;;;;;;;;22.40;99.90;;;;;;4932639;29;19927;-72
2021/09/07 10:43:45;;;;;;;;;;;22.50;99.90;;;;;;4933039;29;19966;-72
2021/09/07 10:46:16;;;;;;;;;;;22.50;99.90;;;;;;4972085;28;19940;-72
2021/09/07 10:48:48;;;;;;;;;;;22.60;99.90;;;;;;4985001;28;19925;-73
2021/09/07 10:51:15;;;;;;;;;;;22.70;99.90;;;;;;4990889;28;19925;-73
2021/09/07 10:54:01;;;;;;;;;;;22.80;99.90;;;;;;5010030;28;19925;-73
2021/09/07 10:56:29;;;;;;;;;;;22.90;99.90;;;;;;5009782;28;20369;-73
2021/09/07 10:59:01;;;;;;;;;;;22.90;99.90;;;;;;5015919;28;19980;-73
2021/09/07 11:01:29;;;;;;;;;;;23.00;99.90;;;;;;4992617;28;20339;-72
2021/09/07 11:04:21;;;;;;;;;;;23.20;99.90;;;;;;4993568;28;19925;-73
2021/09/07 11:06:47;;;;;;;;;;;23.20;99.90;;;;;;4982497;28;19947;-73
2021/09/07 11:09:38;;;;;;;;;;;23.40;99.90;;;;;;5010692;28;19926;-73
2021/09/07 11:12:26;;;;;;;;;;;23.50;99.90;;;;;;5015498;28;19925;-73
2021/09/07 11:15:04;;;;;;;;;;;23.50;99.90;;;;;;5008715;28;19965;-73
2021/09/07 11:17:31;;;;;;;;;;;23.40;99.90;;;;;;5024206;28;19953;-73
2021/09/07 11:20:06;;;;;;;;;;;23.40;99.90;;;;;;5024781;28;20090;-72
2021/09/07 11:22:33;;;;;;;;;;;23.30;99.90;;;;;;4994577;28;20032;-73
2021/09/07 11:25:07;;;;;;;;;;;23.40;99.90;;;;;;4991701;28;20365;-73
2021/09/07 11:27:56;;;;;;;;;;;23.40;99.90;;;;;;4974590;28;20028;-73
2021/09/07 11:30:30;;;;;;;;;;;23.60;99.60;;;;;;5012005;28;20502;-72
2021/09/07 11:32:59;;;;;;;;;;;23.80;99.90;;;;;;5008731;28;19932;-73
2021/09/07 11:35:33;;;;;;;;;;;24.00;99.40;;;;;;4987037;28;20008;-73
2021/09/07 11:38:01;;;;;;;;;;;24.10;98.50;;;;;;4986776;28;19961;-73
2021/09/07 11:40:28;;;;;;;;;;;24.20;98.70;;;;;;5011152;28;20009;-73
2021/09/07 11:43:01;;;;;;;;;;;24.30;98.20;;;;;;5009964;28;20401;-72
2021/09/07 11:45:34;;;;;;;;;;;24.30;95.40;;;;;;4986166;28;19929;-73
2021/09/07 11:48:07;;;;;;;;;;;24.30;97.60;;;;;;4993982;28;20020;-73
2021/09/07 11:50:39;;;;;;;;;;;24.30;96.80;;;;;;4991182;28;19932;-73
2021/09/07 11:53:08;;;;;;;;;;;24.30;96.60;;;;;;4991070;28;19983;-73
2021/09/07 11:55:41;;;;;;;;;;;24.30;96.70;;;;;;5009898;28;19926;-73
2021/09/07 11:58:08;;;;;;;;;;;24.20;97.20;;;;;;4993318;28;20024;-73
2021/09/07 12:00:39;;;;;;;;;;;24.20;96.30;;;;;;4999482;28;19926;-72
2021/09/07 12:03:14;;;;;;;;;;;24.20;95.90;;;;;;4990755;28;19936;-74
2021/09/07 12:05:50;;;;;;;;;;;24.10;96.90;;;;;;5008529;28;19933;-72
2021/09/07 12:08:42;;;;;;;;;;;24.10;96.50;;;;;;5007181;28;19925;-72
2021/09/07 12:11:34;;;;;;;;;;;24.20;97.20;;;;;;4980754;28;20032;-74
2021/09/07 12:14:11;;;;;;;;;;;24.20;95.80;;;;;;4967391;28;20380;-72
2021/09/07 12:16:48;;;;;;;;;;;24.20;95.50;;;;;;5000044;28;19929;-71
2021/09/07 12:19:31;;;;;;;;;;;24.30;93.70;;;;;;5001961;28;19933;-73
2021/09/07 12:22:05;;;;;;;;;;;24.30;94.40;;;;;;5010503;28;19926;-73
2021/09/07 12:24:38;;;;;;;;;;;24.40;94.90;;;;;;4993359;28;20024;-73
2021/09/07 12:27:21;;;;;;;;;;;24.40;95.40;;;;;;5011481;28;19925;-73
2021/09/07 12:30:19;;;;;;;;;;;24.50;94.50;;;;;;4979233;28;20454;-72
2021/09/07 12:33:01;;;;;;;;;;;24.60;93.30;;;;;;4953236;28;19958;-72
2021/09/07 12:35:27;;;;;;;;;;;24.70;92.50;;;;;;4976502;28;20041;-72
2021/09/07 12:37:54;;;;;;;;;;;24.80;93.20;;;;;;4978476;28;19964;-72
2021/09/07 12:40:20;;;;;;;;;;;24.90;92.40;;;;;;4989640;28;19932;-73
2021/09/07 12:42:53;;;;;;;;;;;24.80;92.30;;;;;;4999892;28;19977;-72
2021/09/07 12:45:20;;;;;;;;;;;24.80;91.80;;;;;;5019851;28;20016;-72
2021/09/07 12:47:47;;;;;;;;;;;24.80;91.90;;;;;;4996833;28;19968;-72
2021/09/07 12:50:14;;;;;;;;;;;24.80;92.60;;;;;;4997529;28;20024;-72
2021/09/07 12:52:41;;;;;;;;;;;24.80;93.30;;;;;;4997355;28;19980;-73
2021/09/07 12:55:12;;;;;;;;;;;24.80;90.90;;;;;;4995573;28;19925;-73
2021/09/07 13:09:38;;;;;;;;;;;24.80;87.70;;;;;;5050827;28;19947;-73
2021/09/07 13:12:11;;;;;;;;;;;24.80;90.00;;;;;;5037299;28;20391;-73
2021/09/07 13:14:37;;;;;;;;;;;24.80;89.80;;;;;;5036175;28;20027;-72
2021/09/07 13:17:09;;;;;;;;;;;24.80;86.70;;;;;;5036406;28;20012;-72
2021/09/07 13:19:41;;;;;;;;;;;24.80;87.70;;;;;;5036476;28;19929;-71
2021/09/07 13:22:08;;;;;;;;;;;24.90;88.10;;;;;;5036556;28;19931;-72
2021/09/07 13:24:39;;;;;;;;;;;24.90;86.00;;;;;;5035893;28;20359;-72
2021/09/07 13:27:11;;;;;;;;;;;24.90;89.70;;;;;;5036489;28;19925;-73
2021/09/07 13:29:42;;;;;;;;;;;25.00;88.50;;;;;;5031913;28;20026;-73
2021/09/07 13:32:14;;;;;;;;;;;25.00;90.00;;;;;;5024970;28;20011;-73
2021/09/07 13:34:46;;;;;;;;;;;25.10;89.10;;;;;;5036837;28;19964;-72
2021/09/07 13:37:13;;;;;;;;;;;25.10;86.90;;;;;;5036119;28;19979;-72
2021/09/07 13:39:44;;;;;;;;;;;25.10;86.30;;;;;;5033902;28;19967;-72
2021/09/07 13:42:20;;;;;;;;;;;25.10;85.40;;;;;;5046908;28;19960;-72
2021/09/07 13:44:47;;;;;;;;;;;25.00;87.50;;;;;;5035157;28;19925;-72
2021/09/07 13:47:19;;;;;;;;;;;24.90;84.30;;;;;;5031550;28;19947;-72
2021/09/07 13:49:46;;;;;;;;;;;25.00;87.20;;;;;;5036157;28;20027;-74
2021/09/07 13:52:17;;;;;;;;;;;25.00;86.80;;;;;;5035900;28;20450;-73
2021/09/07 13:54:49;;;;;;;;;;;25.20;88.10;;;;;;5053068;28;19931;-73
2021/09/07 13:57:16;;;;;;;;;;;25.30;89.80;;;;;;5050077;28;20024;-72
2021/09/07 13:59:42;;;;;;;;;;;25.50;89.30;;;;;;5053931;28;20383;-72
2021/09/07 14:02:14;;;;;;;;;;;25.60;88.00;;;;;;5035745;28;19948;-72
2021/09/07 14:04:47;;;;;;;;;;;25.60;87.20;;;;;;5001927;28;20338;-72
2021/09/07 14:07:19;;;;;;;;;;;25.60;86.70;;;;;;5033725;28;19964;-72
2021/09/07 14:09:45;;;;;;;;;;;25.60;87.50;;;;;;5033196;28;19967;-74
2021/09/07 14:12:12;;;;;;;;;;;25.60;87.10;;;;;;5044320;28;19925;-72
2021/09/07 14:14:44;;;;;;;;;;;25.50;86.70;;;;;;5031311;28;20421;-72
2021/09/07 14:17:15;;;;;;;;;;;25.50;90.00;;;;;;5050018;28;20361;-72
2021/09/07 14:19:47;;;;;;;;;;;25.40;87.00;;;;;;5034424;28;20439;-72
2021/09/07 14:22:19;;;;;;;;;;;25.30;89.50;;;;;;5035515;28;19924;-72
2021/09/07 14:24:50;;;;;;;;;;;25.40;90.00;;;;;;5019142;28;19968;-73
2021/09/07 14:27:17;;;;;;;;;;;25.40;90.00;;;;;;5028179;28;19966;-73
2021/09/07 14:29:44;;;;;;;;;;;25.40;90.00;;;;;;5048776;28;19928;-72
2021/09/07 14:32:15;;;;;;;;;;;25.30;89.60;;;;;;5024384;28;20007;-73
2021/09/07 14:34:47;;;;;;;;;;;25.20;89.10;;;;;;5045376;28;20456;-72
2021/09/07 14:37:14;;;;;;;;;;;25.30;89.20;;;;;;5032023;28;20426;-73
2021/09/07 14:39:45;;;;;;;;;;;25.30;89.60;;;;;;5034042;28;19929;-73
2021/09/07 14:42:17;;;;;;;;;;;25.40;88.40;;;;;;5033103;28;20425;-73
2021/09/07 14:44:44;;;;;;;;;;;25.40;86.10;;;;;;5048593;28;20012;-73
2021/09/07 14:47:11;;;;;;;;;;;25.50;86.80;;;;;;5023857;28;20035;-73
2021/09/07 14:49:39;;;;;;;;;;;25.60;83.30;;;;;;5032031;28;19964;-72
2021/09/07 14:52:10;;;;;;;;;;;25.70;81.70;;;;;;5032822;28;19925;-73